createdAt,value
2019-04-29T00:01:31.075Z,79.17
2019-04-29T00:04:00.844Z,78.89
2019-04-29T00:06:30.652Z,77.56
2019-04-29T00:09:00.574Z,78.10
2019-04-29T00:11:30.273Z,79.38
2019-04-29T00:14:00.149Z,79.21
2019-04-29T00:16:34.614Z,79.56
2019-04-29T00:19:04.567Z,79.90
2019-04-29T00:21:34.757Z,80.22
2019-04-29T00:24:04.656Z,80.37
2019-04-29T00:26:34.496Z,80.23
2019-04-29T00:29:04.391Z,79.91
2019-04-29T00:31:34.208Z,79.35
2019-04-29T00:34:03.981Z,79.10
2019-04-29T00:36:35.245Z,78.71
2019-04-29T00:39:25.444Z,78.05
2019-04-29T00:42:15.697Z,78.66
2019-04-29T00:44:45.780Z,79.26
2019-04-29T00:47:15.675Z,78.96
2019-04-29T00:49:45.392Z,79.06
2019-04-29T00:52:15.151Z,78.99
2019-04-29T00:55:01.601Z,78.15
2019-04-29T00:57:31.289Z,78.51
2019-04-29T01:00:01.052Z,79.04
2019-04-29T01:02:30.958Z,79.74
2019-04-29T01:05:00.680Z,80.55
2019-04-29T01:07:30.460Z,80.54
2019-04-29T01:10:00.176Z,79.57
2019-04-29T01:12:29.896Z,79.71
2019-04-29T01:14:59.577Z,80.06
2019-04-29T01:17:29.344Z,80.31
2019-04-29T01:19:59.102Z,80.89
2019-04-29T01:22:28.940Z,81.05
2019-04-29T01:24:58.676Z,80.62
2019-04-29T01:27:30.032Z,80.22
2019-04-29T01:29:59.733Z,79.65
2019-04-29T01:32:29.496Z,79.08
2019-04-29T01:34:59.270Z,79.48
2019-04-29T01:37:36.930Z,80.04
2019-04-29T01:40:15.401Z,80.96
2019-04-29T01:42:45.282Z,81.64
2019-04-29T01:45:14.987Z,81.38
2019-04-29T01:47:44.697Z,80.91
2019-04-29T01:50:14.532Z,80.59
2019-04-29T01:52:44.356Z,80.54
2019-04-29T01:55:14.327Z,80.38
2019-04-29T01:57:44.213Z,80.23
2019-04-29T02:00:14.172Z,79.94
2019-04-29T02:02:43.874Z,79.81
2019-04-29T02:05:13.803Z,79.60
2019-04-29T02:07:43.545Z,79.44
2019-04-29T02:10:21.454Z,78.46
2019-04-29T02:12:51.238Z,79.17
2019-04-29T02:15:21.063Z,80.05
2019-04-29T02:17:50.688Z,80.75
2019-04-29T02:20:20.574Z,81.15
2019-04-29T02:22:54.503Z,81.77
2019-04-29T02:25:35.125Z,81.70
2019-04-29T02:28:04.968Z,80.47
2019-04-29T02:30:48.206Z,80.36
2019-04-29T02:33:17.978Z,81.10
2019-04-29T02:35:47.870Z,80.78
2019-04-29T02:38:22.142Z,80.35
2019-04-29T02:40:56.219Z,80.24
2019-04-29T02:43:30.233Z,79.95
2019-04-29T02:46:00.002Z,78.75
2019-04-29T02:48:34.288Z,79.45
2019-04-29T02:51:01.409Z,80.22
2019-04-29T02:53:31.134Z,80.94
2019-04-29T02:56:01.228Z,80.63
2019-04-29T02:58:35.734Z,79.76
2019-04-29T03:01:05.343Z,79.55
2019-04-29T03:03:36.714Z,80.74
2019-04-29T03:06:06.509Z,80.90
2019-04-29T03:08:36.266Z,80.46
2019-04-29T03:11:06.027Z,80.08
2019-04-29T03:13:36.019Z,79.82
2019-04-29T03:16:06.102Z,79.66
2019-04-29T03:18:37.649Z,79.74
2019-04-29T03:21:24.290Z,79.63
2019-04-29T03:23:54.581Z,79.50
2019-04-29T03:26:24.203Z,79.54
2019-04-29T03:28:53.896Z,79.49
2019-04-29T03:31:23.854Z,79.24
2019-04-29T03:33:53.575Z,79.01
2019-04-29T03:36:23.352Z,79.38
2019-04-29T03:38:53.478Z,79.50
2019-04-29T03:41:23.163Z,79.57
2019-04-29T03:43:52.910Z,79.12
2019-04-29T03:46:22.689Z,78.56
2019-04-29T03:48:52.333Z,79.03
2019-04-29T03:51:22.035Z,79.91
2019-04-29T03:53:51.710Z,80.90
2019-04-29T03:56:21.431Z,81.24
2019-04-29T03:58:51.109Z,81.21
2019-04-29T04:01:25.137Z,81.32
2019-04-29T04:03:56.755Z,80.21
2019-04-29T04:06:28.037Z,81.20
2019-04-29T04:09:06.005Z,81.90
2019-04-29T04:11:30.793Z,81.05
2019-04-29T04:14:00.502Z,80.79
2019-04-29T04:16:31.812Z,80.83
2019-04-29T04:19:06.101Z,81.43
2019-04-29T04:21:35.902Z,82.07
2019-04-29T04:24:05.846Z,80.57
2019-04-29T04:26:35.535Z,80.83
2019-04-29T04:29:05.749Z,81.71
2019-04-29T04:31:35.462Z,81.44
2019-04-29T04:34:05.284Z,81.45
2019-04-29T04:36:35.014Z,81.82
2019-04-29T04:39:06.341Z,81.44
2019-04-29T04:41:36.014Z,81.36
2019-04-29T04:46:48.287Z,80.89
2019-04-29T04:49:18.026Z,81.05
2019-04-29T04:51:47.658Z,81.03
2019-04-29T04:54:17.639Z,81.70
2019-04-29T04:56:47.370Z,81.97
2019-04-29T04:59:33.624Z,81.83
2019-04-29T05:02:03.797Z,81.10
2019-04-29T05:04:33.484Z,80.22
2019-04-29T05:07:03.339Z,78.81
2019-04-29T05:09:33.063Z,79.10
2019-04-29T05:12:02.812Z,78.96
2019-04-29T05:14:32.498Z,78.78
2019-04-29T05:17:02.195Z,78.93
2019-04-29T05:19:31.986Z,79.33
2019-04-29T05:22:01.740Z,79.29
2019-04-29T05:24:31.525Z,77.50
2019-04-29T05:27:01.621Z,76.98
2019-04-29T05:29:31.378Z,76.55
2019-04-29T05:32:01.194Z,74.90
2019-04-29T05:34:32.830Z,73.88
2019-04-29T05:37:11.494Z,72.20
2019-04-29T05:39:45.143Z,71.22
2019-04-29T05:42:17.057Z,71.34
2019-04-29T05:45:06.494Z,70.96
2019-04-29T05:47:40.302Z,70.50
2019-04-29T05:50:30.126Z,69.95
2019-04-29T05:53:03.880Z,69.60
2019-04-29T05:55:33.771Z,69.96
2019-04-29T05:58:12.801Z,70.16
2019-04-29T06:00:51.492Z,70.15
2019-04-29T06:03:21.136Z,69.93
2019-04-29T06:05:50.922Z,69.90
2019-04-29T06:08:20.633Z,69.71
2019-04-29T06:10:50.726Z,69.75
2019-04-29T06:13:20.485Z,70.01
2019-04-29T06:15:50.240Z,70.60
2019-04-29T06:18:22.222Z,70.87
2019-04-29T06:20:51.491Z,70.97
2019-04-29T06:23:23.116Z,70.61
2019-04-29T06:25:52.619Z,70.62
2019-04-29T06:28:26.356Z,70.74
2019-04-29T06:30:53.952Z,70.60
2019-04-29T06:33:28.896Z,70.54
2019-04-29T06:35:57.132Z,70.25
2019-04-29T06:38:27.120Z,70.15
2019-04-29T06:40:56.845Z,70.28
2019-04-29T06:43:28.907Z,70.50
2019-04-29T06:45:58.252Z,70.72
2019-04-29T06:48:28.126Z,70.65
2019-04-29T06:50:57.935Z,70.63
2019-04-29T06:53:28.160Z,70.32
2019-04-29T06:55:57.816Z,70.79
2019-04-29T06:58:27.675Z,70.89
2019-04-29T07:01:00.973Z,70.77
2019-04-29T07:03:29.243Z,70.61
2019-04-29T07:05:58.966Z,70.24
2019-04-29T07:08:28.823Z,69.54
2019-04-29T07:11:00.944Z,70.15
2019-04-29T07:13:30.094Z,69.88
2019-04-29T07:15:59.943Z,69.90
2019-04-29T07:18:29.700Z,69.80
2019-04-29T07:20:59.436Z,68.34
2019-04-29T07:23:29.153Z,68.86
2019-04-29T07:25:59.043Z,68.85
2019-04-29T07:28:28.782Z,68.42
2019-04-29T07:31:01.701Z,68.31
2019-04-29T07:33:30.153Z,67.93
2019-04-29T07:36:10.878Z,67.79
2019-04-29T07:38:41.050Z,67.14
2019-04-29T07:41:03.241Z,66.86
2019-04-29T07:43:32.894Z,66.50
2019-04-29T07:46:07.624Z,65.79
2019-04-29T07:48:42.006Z,65.37
2019-04-29T07:51:08.735Z,65.15
2019-04-29T07:53:45.308Z,65.00
2019-04-29T07:56:09.986Z,65.14
2019-04-29T07:58:39.675Z,61.71
2019-04-29T08:01:09.389Z,63.56
2019-04-29T08:03:39.254Z,64.40
2019-04-29T08:06:09.312Z,65.11
2019-04-29T08:08:39.556Z,65.08
2019-04-29T08:11:09.747Z,65.09
2019-04-29T08:13:41.507Z,61.95
2019-04-29T08:16:12.752Z,62.21
2019-04-29T08:18:42.748Z,62.72
2019-04-29T08:21:14.479Z,61.06
2019-04-29T08:23:44.231Z,61.63
2019-04-29T08:26:13.960Z,61.62
2019-04-29T08:28:44.191Z,60.92
2019-04-29T08:31:16.547Z,60.55
2019-04-29T08:33:46.676Z,60.33
2019-04-29T08:36:17.166Z,60.68
2019-04-29T08:38:46.953Z,60.25
2019-04-29T08:41:21.553Z,59.89
2019-04-29T08:43:52.382Z,57.58
2019-04-29T08:46:21.292Z,58.28
2019-04-29T08:48:51.053Z,57.51
2019-04-29T08:51:20.928Z,57.89
2019-04-29T08:53:50.695Z,58.18
2019-04-29T08:56:20.818Z,58.41
2019-04-29T08:58:51.104Z,58.32
2019-04-29T09:01:24.332Z,56.46
2019-04-29T09:03:53.673Z,56.57
2019-04-29T09:06:27.697Z,55.66
2019-04-29T09:08:59.433Z,55.33
2019-04-29T09:11:27.168Z,54.86
2019-04-29T09:13:56.964Z,54.52
2019-04-29T09:16:27.310Z,54.16
2019-04-29T09:18:56.992Z,54.97
2019-04-29T09:21:26.770Z,53.69
2019-04-29T09:23:56.543Z,53.61
2019-04-29T09:26:31.910Z,54.03
2019-04-29T09:29:03.962Z,54.89
2019-04-29T09:31:33.807Z,53.93
2019-04-29T09:34:06.773Z,55.43
2019-04-29T09:36:34.990Z,55.07
2019-04-29T09:39:05.989Z,55.89
2019-04-29T09:41:40.246Z,55.66
2019-04-29T09:44:27.207Z,55.82
2019-04-29T09:46:57.107Z,55.04
2019-04-29T09:49:26.865Z,54.75
2019-04-29T09:51:56.892Z,54.86
2019-04-29T09:54:26.647Z,55.45
2019-04-29T09:56:56.358Z,55.35
2019-04-29T09:59:27.776Z,56.43
2019-04-29T10:01:59.281Z,56.12
2019-04-29T10:04:30.704Z,54.91
2019-04-29T10:07:00.597Z,54.57
2019-04-29T10:09:30.546Z,53.82
2019-04-29T10:12:00.547Z,53.42
2019-04-29T10:14:30.264Z,53.12
2019-04-29T10:17:04.475Z,54.47
2019-04-29T10:19:44.728Z,55.29
2019-04-29T10:22:14.604Z,54.12
2019-04-29T10:24:44.485Z,54.53
2019-04-29T10:27:14.441Z,54.18
2019-04-29T10:29:45.829Z,54.99
2019-04-29T10:32:15.565Z,54.58
2019-04-29T10:34:45.301Z,53.64
2019-04-29T10:37:15.312Z,54.07
2019-04-29T10:39:46.833Z,54.09
2019-04-29T10:42:23.104Z,52.94
2019-04-29T10:44:54.577Z,53.08
2019-04-29T10:47:42.343Z,53.20
2019-04-29T10:50:15.435Z,52.13
2019-04-29T10:52:46.149Z,52.57
2019-04-29T10:55:17.365Z,52.58
2019-04-29T10:57:49.622Z,52.04
2019-04-29T11:00:39.157Z,51.62
2019-04-29T11:03:09.014Z,49.96
2019-04-29T11:05:44.514Z,49.73
2019-04-29T11:08:16.493Z,49.29
2019-04-29T11:10:46.434Z,49.75
2019-04-29T11:13:16.349Z,50.11
2019-04-29T11:15:49.448Z,51.04
2019-04-29T11:18:18.183Z,51.37
2019-04-29T11:20:53.691Z,50.48
2019-04-29T11:23:25.228Z,50.91
2019-04-29T11:25:59.409Z,50.89
2019-04-29T11:28:29.271Z,50.54
2019-04-29T11:30:59.106Z,49.54
2019-04-29T11:33:42.381Z,50.37
2019-04-29T11:36:13.948Z,51.14
2019-04-29T11:38:43.746Z,50.44
2019-04-29T11:41:19.677Z,51.06
2019-04-29T11:43:46.641Z,51.12
2019-04-29T11:46:20.794Z,50.80
2019-04-29T11:48:50.624Z,50.13
2019-04-29T11:52:07.341Z,53.11
2019-04-29T11:54:17.457Z,50.94
2019-04-29T11:56:44.031Z,49.81
2019-04-29T11:59:18.547Z,50.83
2019-04-29T12:01:55.682Z,50.35
2019-04-29T12:04:41.955Z,50.36
2019-04-29T12:07:10.498Z,50.38
2019-04-29T12:09:40.692Z,49.70
2019-04-29T12:12:12.853Z,49.97
2019-04-29T12:15:00.148Z,51.20
2019-04-29T12:17:37.165Z,49.88
2019-04-29T12:20:09.045Z,50.92
2019-04-29T12:22:48.090Z,51.74
2019-04-29T12:25:10.839Z,52.61
2019-04-29T12:27:40.551Z,52.48
2019-04-29T12:30:12.216Z,51.59
2019-04-29T12:32:56.922Z,49.83
2019-04-29T12:35:34.495Z,49.31
2019-04-29T12:38:10.521Z,50.58
2019-04-29T12:40:49.794Z,50.75
2019-04-29T12:43:32.391Z,50.21
2019-04-29T12:46:10.008Z,50.29
2019-04-29T12:48:38.973Z,50.41
2019-04-29T12:51:08.806Z,50.46
2019-04-29T12:53:38.624Z,50.25
2019-04-29T12:56:11.452Z,48.62
2019-04-29T12:58:40.283Z,48.39
2019-04-29T13:01:11.680Z,47.98
2019-04-29T13:03:54.985Z,47.24
2019-04-29T13:06:38.812Z,48.23
2019-04-29T13:09:17.864Z,48.54
2019-04-29T13:11:48.787Z,47.72
2019-04-29T13:14:14.207Z,47.99
2019-04-29T13:16:50.936Z,46.85
2019-04-29T13:19:25.130Z,47.49
2019-04-29T13:21:53.873Z,47.68
2019-04-29T13:24:24.976Z,47.00
2019-04-29T13:26:55.142Z,46.58
2019-04-29T13:29:27.154Z,45.87
2019-04-29T13:31:56.647Z,46.76
2019-04-29T13:34:31.140Z,47.26
2019-04-29T13:37:07.485Z,46.85
2019-04-29T13:39:39.753Z,46.38
2019-04-29T13:42:09.300Z,47.46
2019-04-29T13:44:41.698Z,47.92
2019-04-29T13:47:28.385Z,48.10
2019-04-29T13:49:56.606Z,47.55
2019-04-29T13:52:26.305Z,47.97
2019-04-29T13:54:56.071Z,47.65
2019-04-29T13:57:25.965Z,47.38
2019-04-29T13:59:58.201Z,46.97
2019-04-29T14:02:36.741Z,46.29
2019-04-29T14:05:06.827Z,45.07
2019-04-29T14:07:39.310Z,46.21
2019-04-29T14:10:14.659Z,44.85
2019-04-29T14:12:48.316Z,44.89
2019-04-29T14:15:14.504Z,45.14
2019-04-29T14:17:44.274Z,43.67
2019-04-29T14:20:15.975Z,45.12
2019-04-29T14:22:45.986Z,43.82
2019-04-29T14:25:15.843Z,43.69
2019-04-29T14:27:46.039Z,44.37
2019-04-29T14:30:20.930Z,44.31
2019-04-29T14:32:52.760Z,45.65
2019-04-29T14:35:24.184Z,47.62
2019-04-29T14:37:55.489Z,47.61
2019-04-29T14:40:25.375Z,47.29
2019-04-29T14:42:58.170Z,47.47
2019-04-29T14:45:29.791Z,47.36
2019-04-29T14:48:16.831Z,48.21
2019-04-29T14:50:49.599Z,47.90
2019-04-29T14:53:24.107Z,47.54
2019-04-29T14:55:51.097Z,47.19
2019-04-29T14:58:20.843Z,47.71
2019-04-29T15:00:52.652Z,47.75
2019-04-29T15:03:24.126Z,48.36
2019-04-29T15:05:55.509Z,48.10
2019-04-29T15:08:25.524Z,48.32
2019-04-29T15:10:55.262Z,48.90
2019-04-29T15:13:25.943Z,48.83
2019-04-29T15:16:04.597Z,48.43
2019-04-29T15:18:47.511Z,48.47
2019-04-29T15:21:32.028Z,47.85
2019-04-29T15:23:53.838Z,48.02
2019-04-29T15:26:23.531Z,48.47
2019-04-29T15:28:53.187Z,48.61
2019-04-29T15:31:24.724Z,47.71
2019-04-29T15:33:54.615Z,47.97
2019-04-29T15:36:24.381Z,48.34
2019-04-29T15:39:09.070Z,48.53
2019-04-29T15:41:30.987Z,47.25
2019-04-29T15:44:07.002Z,48.37
2019-04-29T15:46:34.411Z,49.27
2019-04-29T15:48:59.706Z,49.77
2019-04-29T15:51:29.577Z,49.90
2019-04-29T15:53:59.253Z,49.64
2019-04-29T15:56:33.405Z,49.98
2019-04-29T15:59:07.573Z,49.73
2019-04-29T16:01:32.246Z,49.53
2019-04-29T16:04:03.851Z,49.68
2019-04-29T16:06:34.020Z,50.18
2019-04-29T16:09:17.533Z,50.14
2019-04-29T16:11:49.076Z,49.40
2019-04-29T16:14:22.872Z,49.18
2019-04-29T16:16:52.631Z,49.29
2019-04-29T16:19:22.424Z,49.65
2019-04-29T16:21:52.218Z,50.55
2019-04-29T16:24:27.094Z,51.06
2019-04-29T16:26:53.885Z,51.28
2019-04-29T16:29:24.076Z,51.39
2019-04-29T16:31:55.086Z,51.64
2019-04-29T16:34:25.912Z,51.93
2019-04-29T16:36:55.690Z,52.25
2019-04-29T16:39:25.565Z,52.87
2019-04-29T16:42:15.271Z,53.18
2019-04-29T16:44:45.444Z,53.50
2019-04-29T16:47:16.310Z,54.04
2019-04-29T16:49:46.235Z,54.47
2019-04-29T16:52:16.040Z,54.74
2019-04-29T16:54:45.851Z,55.26
2019-04-29T16:57:15.928Z,55.39
2019-04-29T16:59:45.823Z,55.23
2019-04-29T17:02:19.383Z,55.38
2019-04-29T17:04:47.112Z,55.64
2019-04-29T17:07:17.886Z,55.73
2019-04-29T17:09:52.426Z,56.12
2019-04-29T17:12:29.451Z,56.41
2019-04-29T17:15:03.739Z,56.87
2019-04-29T17:17:29.412Z,57.06
2019-04-29T17:19:59.376Z,56.97
2019-04-29T17:22:29.194Z,56.84
2019-04-29T17:24:58.956Z,57.11
2019-04-29T17:27:35.176Z,57.29
2019-04-29T17:30:12.029Z,57.46
2019-04-29T17:32:48.275Z,57.89
2019-04-29T17:35:21.643Z,58.32
2019-04-29T17:37:50.484Z,58.45
2019-04-29T17:40:21.794Z,58.61
2019-04-29T17:42:53.138Z,58.72
2019-04-29T17:45:30.823Z,58.73
2019-04-29T17:48:13.434Z,58.88
2019-04-29T17:50:46.939Z,58.80
2019-04-29T17:53:19.588Z,59.28
2019-04-29T17:55:51.055Z,59.82
2019-04-29T17:58:25.863Z,60.42
2019-04-29T18:00:59.390Z,61.18
2019-04-29T18:03:41.230Z,61.70
2019-04-29T18:06:17.239Z,61.99
2019-04-29T18:08:47.792Z,62.48
2019-04-29T18:11:17.618Z,62.77
2019-04-29T18:13:47.394Z,62.68
2019-04-29T18:16:25.749Z,62.56
2019-04-29T18:18:57.690Z,62.72
2019-04-29T18:21:43.273Z,62.91
2019-04-29T18:24:20.652Z,62.88
2019-04-29T18:26:52.922Z,63.04
2019-04-29T18:29:22.906Z,63.25
2019-04-29T18:31:52.605Z,63.53
2019-04-29T18:34:22.608Z,63.97
2019-04-29T18:36:54.565Z,64.56
2019-04-29T18:39:28.554Z,64.80
2019-04-29T18:41:58.811Z,65.22
2019-04-29T18:44:28.974Z,65.17
2019-04-29T18:46:58.694Z,65.34
2019-04-29T18:49:28.418Z,65.56
2019-04-29T18:52:02.174Z,65.57
2019-04-29T18:54:29.830Z,65.78
2019-04-29T18:56:59.627Z,66.19
2019-04-29T18:59:33.471Z,66.37
2019-04-29T19:02:05.037Z,66.28
2019-04-29T19:04:39.948Z,66.81
2019-04-29T19:07:09.853Z,67.18
2019-04-29T19:09:40.718Z,67.49
2019-04-29T19:12:10.614Z,67.61
2019-04-29T19:14:40.421Z,67.99
2019-04-29T19:17:10.266Z,68.32
2019-04-29T19:19:40.089Z,68.40
2019-04-29T19:22:09.875Z,68.85
2019-04-29T19:24:39.617Z,69.13
2019-04-29T19:27:10.138Z,69.26
2019-04-29T19:29:43.141Z,69.86
2019-04-29T19:32:11.716Z,70.40
2019-04-29T19:34:43.492Z,71.02
2019-04-29T19:37:12.973Z,71.42
2019-04-29T19:39:42.717Z,71.82
2019-04-29T19:42:12.795Z,71.87
2019-04-29T19:44:42.445Z,71.74
2019-04-29T19:47:15.143Z,71.84
2019-04-29T19:49:44.621Z,71.82
2019-04-29T19:52:19.032Z,72.08
2019-04-29T19:54:46.811Z,72.24
2019-04-29T19:57:16.561Z,72.24
2019-04-29T19:59:51.479Z,72.43
2019-04-29T20:02:18.260Z,72.49
2019-04-29T20:04:54.238Z,72.93
2019-04-29T20:07:26.870Z,73.07
2019-04-29T20:10:04.070Z,72.64
2019-04-29T20:12:27.298Z,72.42
2019-04-29T20:14:59.741Z,72.93
2019-04-29T20:17:37.219Z,72.84
2019-04-29T20:20:11.093Z,72.72
2019-04-29T20:22:43.428Z,72.68
2019-04-29T20:25:13.051Z,72.30
2019-04-29T20:27:43.745Z,72.29
2019-04-29T20:30:19.654Z,72.30
2019-04-29T20:32:47.171Z,72.78
2019-04-29T20:35:18.383Z,72.61
2019-04-29T20:37:55.381Z,72.54
2019-04-29T20:40:20.086Z,72.79
2019-04-29T20:42:50.113Z,73.23
2019-04-29T20:45:24.516Z,73.25
2019-04-29T20:47:51.617Z,73.24
2019-04-29T20:50:21.395Z,73.49
2019-04-29T20:53:05.815Z,73.24
2019-04-29T20:55:36.980Z,72.41
2019-04-29T20:58:07.499Z,72.07
2019-04-29T21:00:39.449Z,71.92
2019-04-29T21:03:11.339Z,71.56
2019-04-29T21:05:49.553Z,70.58
2019-04-29T21:08:16.403Z,70.79
2019-04-29T21:10:46.658Z,70.50
2019-04-29T21:13:33.035Z,70.39
2019-04-29T21:16:15.077Z,70.20
2019-04-29T21:18:52.653Z,70.30
2019-04-29T21:21:16.454Z,70.92
2019-04-29T21:23:48.222Z,71.45
2019-04-29T21:26:17.678Z,71.60
2019-04-29T21:28:47.555Z,71.54
2019-04-29T21:31:19.987Z,71.51
2019-04-29T21:33:50.646Z,71.64
2019-04-29T21:36:19.997Z,71.46
2019-04-29T21:38:55.776Z,71.43
2019-04-29T21:41:28.491Z,71.58
2019-04-29T21:43:58.872Z,71.69
2019-04-29T21:46:29.638Z,72.32
2019-04-29T21:48:59.648Z,72.33
2019-04-29T21:51:29.606Z,72.63
2019-04-29T21:53:59.298Z,72.66
2019-04-29T21:56:29.257Z,72.98
2019-04-29T21:59:02.715Z,73.32
2019-04-29T22:01:34.373Z,73.43
2019-04-29T22:04:03.308Z,73.25
2019-04-29T22:06:33.035Z,73.45
2019-04-29T22:09:04.920Z,73.39
2019-04-29T22:11:37.745Z,73.37
2019-04-29T22:14:09.842Z,73.59
2019-04-29T22:16:37.618Z,73.52
2019-04-29T22:19:07.419Z,73.75
2019-04-29T22:21:37.243Z,73.34
2019-04-29T22:24:07.198Z,73.29
2019-04-29T22:26:36.909Z,73.46
2019-04-29T22:29:06.751Z,73.60
2019-04-29T22:31:38.363Z,73.79
2019-04-29T22:34:10.019Z,73.86
2019-04-29T22:36:39.319Z,74.23
2019-04-29T22:39:09.359Z,74.32
2019-04-29T22:41:41.019Z,74.24
2019-04-29T22:44:15.195Z,74.31
2019-04-29T22:46:47.107Z,74.46
2019-04-29T22:49:19.838Z,74.92
2019-04-29T22:51:49.808Z,75.46
2019-04-29T22:54:22.147Z,75.53
2019-04-29T22:56:53.655Z,75.34
2019-04-29T22:59:21.806Z,75.54
2019-04-29T23:01:52.042Z,75.63
2019-04-29T23:04:21.803Z,75.27
2019-04-29T23:06:51.574Z,75.02
2019-04-29T23:09:21.318Z,75.58
2019-04-29T23:11:51.160Z,75.83
2019-04-29T23:14:20.945Z,76.26
2019-04-29T23:16:50.621Z,76.26
2019-04-29T23:19:20.383Z,76.43
2019-04-29T23:22:01.493Z,76.26
2019-04-29T23:24:51.292Z,76.18
2019-04-29T23:27:20.896Z,76.41
2019-04-29T23:29:50.733Z,76.35
2019-04-29T23:32:20.539Z,76.26
2019-04-29T23:34:50.402Z,76.55
2019-04-29T23:37:23.787Z,76.27
2019-04-29T23:39:51.634Z,76.79
2019-04-29T23:42:21.528Z,76.90
2019-04-29T23:44:51.193Z,77.13
2019-04-29T23:47:20.929Z,77.35
2019-04-29T23:49:50.648Z,77.32
2019-04-29T23:52:20.328Z,77.43
2019-04-29T23:54:49.998Z,77.69
2019-04-29T23:57:23.579Z,77.90
